createdAt,value
2023-01-06T16:33:49.875Z,93.32
2023-01-06T16:36:35.178Z,94.14
2023-01-06T16:39:20.622Z,93.97
2023-01-06T16:42:39.308Z,94.22
2023-01-06T16:45:35.252Z,93.34
2023-01-06T16:48:20.489Z,93.11
2023-01-06T16:51:12.697Z,93.31
2023-01-06T16:53:57.925Z,93.24
2023-01-06T16:56:43.428Z,93.29
2023-01-06T16:59:34.937Z,93.10
2023-01-06T17:02:20.717Z,93.07
2023-01-06T17:05:17.301Z,93.21
2023-01-06T17:08:09.339Z,92.98
2023-01-06T17:10:55.233Z,92.62
2023-01-06T17:13:46.102Z,92.67
2023-01-06T17:16:35.173Z,92.15
2023-01-06T17:19:26.561Z,91.93
2023-01-06T17:22:31.726Z,91.38
2023-01-06T17:25:17.357Z,91.02
2023-01-06T17:28:17.285Z,90.67
2023-01-06T17:31:02.431Z,90.78
2023-01-06T17:33:53.371Z,90.39
2023-01-06T17:36:40.475Z,90.02
2023-01-06T17:39:28.629Z,89.56
2023-01-06T17:42:14.014Z,88.80
2023-01-06T17:45:00.245Z,89.84
2023-01-06T17:47:49.390Z,89.63
2023-01-06T17:50:35.725Z,89.61
2023-01-06T17:53:52.443Z,89.60
2023-01-06T17:56:37.541Z,89.84
2023-01-06T17:59:22.877Z,89.85
2023-01-06T18:02:34.736Z,89.82
2023-01-06T18:05:26.076Z,89.74
2023-01-06T18:08:16.543Z,89.56
2023-01-06T18:11:10.634Z,89.69
2023-01-06T18:14:01.610Z,89.59
2023-01-06T18:16:49.594Z,89.56
2023-01-06T18:19:37.478Z,89.45
2023-01-06T18:22:23.967Z,89.30
2023-01-06T18:25:18.781Z,89.74
2023-01-06T18:28:15.445Z,89.38
2023-01-06T18:31:03.502Z,89.66
2023-01-06T18:33:51.945Z,89.54
2023-01-06T18:36:37.339Z,89.67
2023-01-06T18:39:26.247Z,89.84
2023-01-06T18:42:24.928Z,89.94
2023-01-06T18:45:22.123Z,90.02
2023-01-06T18:48:22.639Z,90.07
2023-01-06T18:51:23.176Z,90.21
2023-01-06T18:54:26.831Z,90.06
2023-01-06T18:57:27.491Z,90.34
2023-01-06T19:00:36.124Z,90.16
2023-01-06T19:03:31.788Z,90.21
